createdAt,value
2023-04-08T00:00:30.457Z,11.00
2023-04-08T00:02:58.790Z,10.00
2023-04-08T00:05:27.090Z,10.57
2023-04-08T00:07:55.412Z,10.10
2023-04-08T00:10:24.949Z,10.43
2023-04-08T00:12:53.277Z,10.93
2023-04-08T00:15:22.930Z,10.90
2023-04-08T00:17:51.349Z,13.63
2023-04-08T00:20:19.682Z,10.87
2023-04-08T00:22:47.989Z,9.57
2023-04-08T00:25:16.916Z,10.63
2023-04-08T00:27:45.323Z,11.23
2023-04-08T00:30:13.619Z,9.80
2023-04-08T00:32:43.721Z,11.17
2023-04-08T00:35:12.893Z,10.97
2023-04-08T00:37:41.412Z,9.43
2023-04-08T00:40:10.168Z,9.77
2023-04-08T00:42:38.407Z,8.90
2023-04-08T00:45:07.051Z,9.77
2023-04-08T00:47:35.546Z,9.20
2023-04-08T00:50:05.305Z,11.57
2023-04-08T00:52:33.543Z,9.37
2023-04-08T00:55:01.789Z,10.17
2023-04-08T00:57:30.130Z,9.00
2023-04-08T00:59:58.398Z,8.67
2023-04-08T01:02:29.772Z,8.57
2023-04-08T01:05:02.190Z,9.37
2023-04-08T01:07:34.251Z,9.30
2023-04-08T01:10:05.053Z,9.17
2023-04-08T01:12:34.539Z,11.80
2023-04-08T01:15:05.113Z,8.60
2023-04-08T01:17:33.944Z,8.83
2023-04-08T01:20:04.203Z,8.67
2023-04-08T01:22:39.040Z,8.13
2023-04-08T01:25:08.916Z,9.50
2023-04-08T01:27:41.307Z,10.07
2023-04-08T01:30:10.117Z,8.27
2023-04-08T01:32:38.535Z,9.43
2023-04-08T01:35:07.935Z,9.23
2023-04-08T01:37:36.407Z,9.37
2023-04-08T01:40:05.048Z,9.17
2023-04-08T01:42:34.331Z,10.30
2023-04-08T01:45:05.193Z,9.73
2023-04-08T01:47:33.609Z,12.40
2023-04-08T01:50:03.257Z,14.33
2023-04-08T01:52:32.019Z,11.40
2023-04-08T01:55:01.218Z,12.57
2023-04-08T01:57:30.401Z,10.97
2023-04-08T02:00:00.263Z,13.07
2023-04-08T02:02:30.567Z,14.40
2023-04-08T02:05:00.302Z,14.37
2023-04-08T02:07:28.521Z,16.40
2023-04-08T02:09:57.761Z,12.30
2023-04-08T02:12:26.423Z,13.97
2023-04-08T02:14:55.359Z,15.20
2023-04-08T02:17:27.084Z,14.30
2023-04-08T02:20:00.496Z,11.77
2023-04-08T02:22:31.788Z,10.63
2023-04-08T02:25:01.216Z,12.63
2023-04-08T02:27:30.218Z,11.23
2023-04-08T02:29:59.530Z,10.73
2023-04-08T02:32:30.075Z,10.93
2023-04-08T02:34:59.824Z,10.30
2023-04-08T02:37:28.093Z,11.07
2023-04-08T02:39:56.282Z,11.00
2023-04-08T02:42:24.466Z,9.67
2023-04-08T02:44:53.048Z,9.03
2023-04-08T02:47:21.227Z,8.83
2023-04-08T02:49:52.440Z,10.63
2023-04-08T02:52:22.459Z,8.77
2023-04-08T02:54:50.726Z,9.17
2023-04-08T02:57:18.922Z,8.40
2023-04-08T02:59:47.133Z,9.47
2023-04-08T03:02:15.399Z,8.47
2023-04-08T03:04:43.625Z,8.83
2023-04-08T03:07:11.887Z,9.87
2023-04-08T03:09:42.066Z,11.30
2023-04-08T03:12:10.269Z,9.40
2023-04-08T03:14:38.459Z,7.57
2023-04-08T03:17:06.715Z,8.07
2023-04-08T03:19:35.005Z,9.23
2023-04-08T03:22:03.206Z,9.17
2023-04-08T03:24:31.462Z,7.20
2023-04-08T03:27:01.368Z,7.70
2023-04-08T03:29:29.598Z,7.50
2023-04-08T03:31:57.967Z,8.47
2023-04-08T03:34:26.145Z,7.30
2023-04-08T03:36:54.326Z,12.00
2023-04-08T03:39:22.494Z,7.03
2023-04-08T03:41:50.658Z,6.93
2023-04-08T03:44:20.193Z,6.50
2023-04-08T03:46:48.369Z,7.87
2023-04-08T03:49:16.553Z,7.40
2023-04-08T03:51:44.746Z,7.33
2023-04-08T03:54:12.909Z,6.83
2023-04-08T03:56:41.110Z,6.80
2023-04-08T03:59:09.291Z,8.80
2023-04-08T04:01:40.581Z,8.00
2023-04-08T04:04:10.311Z,7.60
2023-04-08T04:06:38.740Z,7.77
2023-04-08T04:09:07.009Z,8.40
2023-04-08T04:11:36.329Z,7.30
2023-04-08T04:14:04.566Z,7.37
2023-04-08T04:16:33.185Z,7.60
2023-04-08T04:19:02.970Z,7.77
2023-04-08T04:21:31.289Z,7.23
2023-04-08T04:23:59.452Z,7.63
2023-04-08T04:26:27.679Z,7.80
2023-04-08T04:28:55.893Z,7.33
2023-04-08T04:31:26.373Z,8.40
2023-04-08T04:33:54.829Z,7.10
2023-04-08T04:36:24.411Z,7.17
2023-04-08T04:38:52.959Z,6.97
2023-04-08T04:41:21.744Z,7.10
2023-04-08T04:43:49.965Z,9.03
2023-04-08T04:46:18.200Z,7.20
2023-04-08T04:48:46.410Z,7.50
2023-04-08T04:51:14.584Z,8.20
2023-04-08T04:53:44.117Z,6.63
2023-04-08T04:56:12.350Z,6.57
2023-04-08T04:58:40.594Z,8.60
2023-04-08T05:01:08.808Z,8.97
2023-04-08T05:03:37.060Z,9.23
2023-04-08T05:06:05.403Z,8.47
2023-04-08T05:08:33.563Z,6.83
2023-04-08T05:11:03.134Z,6.70
2023-04-08T05:13:31.366Z,6.63
2023-04-08T05:15:59.612Z,8.50
2023-04-08T05:18:27.884Z,9.60
2023-04-08T05:20:56.144Z,7.23
2023-04-08T05:23:24.362Z,8.87
2023-04-08T05:25:52.604Z,7.57
2023-04-08T05:28:22.234Z,7.20
2023-04-08T05:30:52.089Z,6.60
2023-04-08T05:33:20.478Z,6.23
2023-04-08T05:35:48.745Z,7.27
2023-04-08T05:38:17.011Z,8.37
2023-04-08T05:40:45.264Z,7.03
2023-04-08T05:43:13.478Z,6.90
2023-04-08T05:45:43.118Z,6.57
2023-04-08T05:48:11.393Z,6.70
2023-04-08T05:50:39.645Z,6.90
2023-04-08T05:53:07.954Z,6.70
2023-04-08T05:55:36.304Z,7.83
2023-04-08T05:58:04.556Z,6.70
2023-04-08T06:00:32.859Z,7.57
2023-04-08T06:03:02.635Z,7.60
2023-04-08T06:05:31.030Z,8.23
2023-04-08T06:07:59.249Z,8.00
2023-04-08T06:10:27.490Z,6.87
2023-04-08T06:12:55.859Z,8.17
2023-04-08T06:15:24.105Z,7.37
2023-04-08T06:17:52.457Z,6.40
2023-04-08T06:20:22.062Z,13.90
2023-04-08T06:22:50.493Z,7.23
2023-04-08T06:25:18.816Z,6.70
2023-04-08T06:27:48.370Z,7.40
2023-04-08T06:30:17.321Z,6.20
2023-04-08T06:32:47.335Z,9.90
2023-04-08T06:35:15.756Z,6.50
2023-04-08T06:37:45.479Z,6.57
2023-04-08T06:40:13.818Z,6.43
2023-04-08T06:42:43.111Z,8.30
2023-04-08T06:45:12.038Z,6.57
2023-04-08T06:47:40.497Z,6.23
2023-04-08T06:50:09.246Z,9.30
2023-04-08T06:52:37.571Z,10.53
2023-04-08T06:55:07.675Z,9.37
2023-04-08T06:57:35.954Z,9.50
2023-04-08T07:00:04.327Z,8.33
2023-04-08T07:02:32.833Z,10.47
2023-04-08T07:05:01.107Z,6.40
2023-04-08T07:07:29.362Z,7.40
2023-04-08T07:09:57.641Z,8.13
2023-04-08T07:12:27.210Z,6.33
2023-04-08T07:14:55.732Z,6.73
2023-04-08T07:17:24.004Z,8.73
2023-04-08T07:19:52.355Z,7.10
2023-04-08T07:22:20.638Z,6.63
2023-04-08T07:24:49.820Z,7.00
2023-04-08T07:27:18.217Z,9.33
2023-04-08T07:29:47.823Z,12.10
2023-04-08T07:32:16.274Z,9.23
2023-04-08T07:34:44.511Z,11.23
2023-04-08T07:37:12.907Z,9.90
2023-04-08T07:39:41.340Z,9.63
2023-04-08T07:42:09.606Z,9.10
2023-04-08T07:44:38.280Z,8.93
2023-04-08T07:47:07.859Z,12.10
2023-04-08T07:49:36.673Z,9.23
2023-04-08T07:52:04.982Z,9.43
2023-04-08T07:54:34.315Z,9.03
2023-04-08T07:57:02.637Z,8.50
2023-04-08T07:59:31.208Z,8.97
2023-04-08T08:01:59.622Z,8.23
2023-04-08T08:04:29.543Z,9.00
2023-04-08T08:06:58.077Z,9.43
2023-04-08T08:09:26.407Z,8.77
2023-04-08T08:11:54.626Z,9.17
2023-04-08T08:14:22.823Z,9.17
2023-04-08T08:16:51.070Z,8.77
2023-04-08T08:19:19.318Z,10.93
2023-04-08T08:21:48.889Z,9.47
2023-04-08T08:24:17.572Z,11.80
2023-04-08T08:26:47.169Z,11.30
2023-04-08T08:29:15.592Z,9.80
2023-04-08T08:31:43.914Z,9.70
2023-04-08T08:34:12.188Z,11.27
2023-04-08T08:36:40.506Z,11.17
2023-04-08T08:39:10.102Z,10.53
2023-04-08T08:41:38.349Z,10.20
2023-04-08T08:44:07.955Z,10.70
2023-04-08T08:46:36.388Z,10.47
2023-04-08T08:49:04.730Z,10.17
2023-04-08T08:51:33.869Z,14.40
2023-04-08T08:54:04.168Z,10.13
2023-04-08T08:56:34.609Z,10.23
2023-04-08T08:59:02.818Z,10.73
2023-04-08T09:01:35.098Z,10.40
2023-04-08T09:04:15.834Z,10.00
2023-04-08T09:06:44.528Z,10.10
2023-04-08T09:09:12.748Z,10.00
2023-04-08T09:11:43.041Z,10.40
2023-04-08T09:14:21.360Z,10.87
2023-04-08T09:16:49.850Z,11.50
2023-04-08T09:19:18.174Z,10.90
2023-04-08T09:21:47.605Z,10.77
2023-04-08T09:24:29.333Z,10.80
2023-04-08T09:26:59.012Z,12.83
2023-04-08T09:29:30.581Z,12.97
2023-04-08T09:32:00.527Z,13.67
2023-04-08T09:34:32.317Z,10.77
2023-04-08T09:37:00.783Z,11.23
2023-04-08T09:39:29.035Z,11.60
2023-04-08T09:42:01.148Z,12.17
2023-04-08T09:44:31.114Z,14.80
2023-04-08T09:47:03.506Z,14.03
2023-04-08T09:49:36.499Z,10.57
2023-04-08T09:52:09.033Z,11.37
2023-04-08T09:54:44.186Z,10.53
2023-04-08T09:57:16.286Z,18.10
2023-04-08T09:59:51.299Z,10.90
2023-04-08T10:02:27.085Z,25.27
2023-04-08T10:04:56.176Z,18.33
2023-04-08T10:07:24.472Z,12.57
2023-04-08T10:09:53.397Z,9.93
2023-04-08T10:12:23.074Z,10.17
2023-04-08T10:15:06.201Z,10.10
2023-04-08T10:17:36.878Z,10.50
2023-04-08T10:20:05.472Z,11.30
2023-04-08T10:22:49.714Z,12.07
2023-04-08T10:25:30.729Z,10.77
2023-04-08T10:28:00.443Z,9.80
2023-04-08T10:30:41.276Z,11.20
2023-04-08T10:33:12.227Z,11.80
2023-04-08T10:35:42.997Z,11.37
2023-04-08T10:38:12.818Z,9.47
2023-04-08T10:40:42.518Z,9.90
2023-04-08T10:43:13.014Z,9.93
2023-04-08T10:45:41.866Z,11.00
2023-04-08T10:48:13.884Z,11.53
2023-04-08T10:50:42.449Z,9.87
2023-04-08T10:53:11.813Z,11.20
2023-04-08T10:55:40.263Z,11.53
2023-04-08T10:58:08.969Z,10.67
2023-04-08T11:00:39.478Z,10.97
2023-04-08T11:03:09.084Z,11.67
2023-04-08T11:05:38.066Z,12.77
2023-04-08T11:08:06.678Z,11.73
2023-04-08T11:10:38.793Z,11.07
2023-04-08T11:13:09.881Z,10.47
2023-04-08T11:15:40.296Z,10.30
2023-04-08T11:18:09.140Z,10.80
2023-04-08T11:20:38.365Z,10.87
2023-04-08T11:23:06.617Z,11.83
2023-04-08T11:25:34.982Z,11.67
2023-04-08T11:28:03.924Z,11.37
2023-04-08T11:30:33.678Z,12.03
2023-04-08T11:33:03.803Z,11.50
2023-04-08T11:35:32.295Z,11.57
2023-04-08T11:38:00.821Z,11.47
2023-04-08T11:40:29.082Z,11.23
2023-04-08T11:42:57.381Z,12.90
2023-04-08T11:45:25.671Z,12.80
2023-04-08T11:47:54.118Z,12.50
2023-04-08T11:50:29.881Z,13.17
2023-04-08T11:52:58.089Z,12.90
2023-04-08T11:55:27.264Z,13.23
2023-04-08T11:57:56.226Z,13.70
2023-04-08T12:00:27.915Z,12.90
2023-04-08T12:02:56.542Z,12.03
2023-04-08T12:05:24.831Z,13.83
2023-04-08T12:07:54.397Z,13.10
2023-04-08T12:10:22.697Z,12.83
2023-04-08T12:12:51.106Z,22.80
2023-04-08T12:15:19.427Z,14.37
2023-04-08T12:17:47.772Z,12.67
2023-04-08T12:20:17.338Z,13.57
2023-04-08T12:22:45.826Z,14.23
2023-04-08T12:25:15.456Z,12.83
2023-04-08T12:27:43.654Z,13.50
2023-04-08T12:30:12.963Z,14.33
2023-04-08T12:32:42.653Z,14.40
2023-04-08T12:35:11.177Z,14.17
2023-04-08T12:37:39.453Z,15.60
2023-04-08T12:40:08.431Z,14.47
2023-04-08T12:42:38.020Z,14.90
2023-04-08T12:45:06.598Z,15.43
2023-04-08T12:47:34.842Z,15.53
2023-04-08T12:50:03.153Z,19.20
2023-04-08T12:52:31.426Z,21.10
2023-04-08T12:54:59.717Z,20.23
2023-04-08T12:57:28.357Z,20.57
2023-04-08T12:59:58.166Z,19.63
2023-04-08T13:02:27.397Z,21.27
2023-04-08T13:04:55.785Z,23.80
2023-04-08T13:07:24.142Z,20.93
2023-04-08T13:09:52.369Z,20.20
2023-04-08T13:12:20.606Z,21.70
2023-04-08T13:14:48.831Z,21.70
2023-04-08T13:17:18.410Z,26.30
2023-04-08T13:19:47.435Z,20.70
2023-04-08T13:22:15.799Z,20.07
2023-04-08T13:24:44.108Z,21.30
2023-04-08T13:27:12.333Z,22.57
2023-04-08T13:29:40.617Z,22.47
2023-04-08T13:32:09.050Z,21.43
2023-04-08T13:34:38.788Z,24.20
2023-04-08T13:37:07.228Z,20.33
2023-04-08T13:39:35.536Z,21.70
2023-04-08T13:42:04.126Z,22.50
2023-04-08T13:44:33.128Z,25.40
2023-04-08T13:47:01.971Z,23.53
2023-04-08T13:49:30.547Z,22.63
2023-04-08T13:52:00.382Z,21.47
2023-04-08T13:54:28.642Z,21.80
2023-04-08T13:56:57.515Z,22.07
2023-04-08T13:59:25.919Z,23.17
2023-04-08T14:01:55.169Z,21.80
2023-04-08T14:04:23.825Z,21.93
2023-04-08T14:06:53.193Z,21.53
2023-04-08T14:09:22.792Z,20.87
2023-04-08T14:11:50.987Z,22.30
2023-04-08T14:14:19.211Z,22.90
2023-04-08T14:16:47.522Z,23.57
2023-04-08T14:19:16.447Z,25.80
2023-04-08T14:21:44.772Z,23.70
2023-04-08T14:24:13.492Z,22.57
2023-04-08T14:26:43.190Z,22.97
2023-04-08T14:29:11.759Z,24.77
2023-04-08T14:31:39.979Z,23.97
2023-04-08T14:34:08.292Z,22.00
2023-04-08T14:36:36.530Z,24.93
2023-04-08T14:39:04.797Z,22.00
2023-04-08T14:41:33.182Z,23.23
2023-04-08T14:44:02.875Z,21.47
2023-04-08T14:46:31.640Z,22.17
2023-04-08T14:49:00.905Z,26.70
2023-04-08T14:51:30.093Z,22.13
2023-04-08T14:53:58.341Z,22.20
2023-04-08T14:56:26.542Z,24.67
2023-04-08T14:58:54.718Z,23.10
2023-04-08T15:01:24.378Z,27.30
2023-04-08T15:03:52.721Z,26.87
2023-04-08T15:06:21.715Z,22.70
2023-04-08T15:08:50.384Z,23.73
2023-04-08T15:11:19.506Z,23.70
2023-04-08T15:13:47.843Z,26.97
2023-04-08T15:16:16.128Z,24.87
2023-04-08T15:18:46.029Z,25.40
2023-04-08T15:21:14.276Z,25.53
2023-04-08T15:23:43.518Z,26.83
2023-04-08T15:26:12.061Z,24.57
2023-04-08T15:28:40.684Z,26.33
2023-04-08T15:31:09.285Z,25.53
2023-04-08T15:33:41.234Z,28.90
2023-04-08T15:36:10.968Z,26.70
2023-04-08T15:38:39.936Z,28.03
2023-04-08T15:41:08.207Z,30.73
2023-04-08T15:43:36.890Z,26.70
2023-04-08T15:46:05.130Z,26.17
2023-04-08T15:48:33.844Z,28.03
2023-04-08T15:51:08.087Z,28.67
2023-04-08T15:53:37.935Z,24.37
2023-04-08T15:56:06.575Z,28.83
2023-04-08T15:58:34.874Z,25.27
2023-04-08T16:01:03.178Z,23.47
2023-04-08T16:03:31.835Z,26.10
2023-04-08T16:06:00.408Z,26.77
2023-04-08T16:08:29.041Z,22.83
2023-04-08T16:11:02.740Z,24.73
2023-04-08T16:13:31.179Z,24.47
2023-04-08T16:15:59.745Z,27.43
2023-04-08T16:18:28.208Z,24.43
2023-04-08T16:20:56.741Z,27.97
2023-04-08T16:23:25.000Z,24.43
2023-04-08T16:25:53.385Z,23.13
2023-04-08T16:28:23.044Z,25.10
2023-04-08T16:30:51.290Z,23.77
2023-04-08T16:33:19.556Z,23.17
2023-04-08T16:35:49.247Z,25.37
2023-04-08T16:38:17.533Z,26.73
2023-04-08T16:40:45.922Z,25.17
2023-04-08T16:43:14.330Z,25.77
2023-04-08T16:45:45.854Z,28.63
2023-04-08T16:48:14.159Z,27.73
2023-04-08T16:50:42.752Z,27.53
2023-04-08T16:53:11.052Z,23.07
2023-04-08T16:55:39.529Z,23.07
2023-04-08T16:58:07.758Z,24.23
2023-04-08T17:00:36.345Z,22.37
2023-04-08T17:03:06.197Z,21.40
2023-04-08T17:05:34.485Z,23.23
2023-04-08T17:08:03.091Z,23.77
2023-04-08T17:10:31.424Z,21.23
2023-04-08T17:12:59.684Z,22.27
2023-04-08T17:15:28.191Z,24.50
2023-04-08T17:17:56.591Z,21.23
2023-04-08T17:20:27.766Z,22.03
2023-04-08T17:22:56.010Z,22.63
2023-04-08T17:25:24.529Z,22.30
2023-04-08T17:27:52.749Z,22.30
2023-04-08T17:30:21.091Z,23.97
2023-04-08T17:32:49.399Z,24.10
2023-04-08T17:35:17.696Z,24.53
2023-04-08T17:37:47.337Z,24.53
2023-04-08T17:40:15.753Z,22.07
2023-04-08T17:42:43.978Z,21.87
2023-04-08T17:45:12.467Z,23.33
2023-04-08T17:47:41.233Z,25.47
2023-04-08T17:50:11.872Z,21.67
2023-04-08T17:52:40.290Z,23.43
2023-04-08T17:55:10.809Z,25.23
2023-04-08T17:57:39.123Z,26.23
2023-04-08T18:00:08.212Z,20.53
2023-04-08T18:02:37.478Z,20.93
2023-04-08T18:05:06.550Z,20.83
2023-04-08T18:07:34.840Z,21.70
2023-04-08T18:10:03.136Z,24.87
2023-04-08T18:12:32.927Z,50.97
2023-04-08T18:15:01.204Z,24.83
2023-04-08T18:17:29.516Z,25.00
2023-04-08T18:19:59.602Z,26.23
2023-04-08T18:22:27.869Z,25.47
2023-04-08T18:24:56.127Z,22.87
2023-04-08T18:27:24.354Z,23.23
2023-04-08T18:29:54.039Z,28.17
2023-04-08T18:32:22.341Z,26.23
2023-04-08T18:34:52.714Z,24.37
2023-04-08T18:37:21.666Z,27.53
2023-04-08T18:39:49.975Z,22.20
2023-04-08T18:42:18.211Z,24.00
2023-04-08T18:44:46.450Z,22.47
2023-04-08T18:47:17.116Z,24.13
2023-04-08T18:49:45.406Z,25.77
2023-04-08T18:52:14.335Z,28.03
2023-04-08T18:54:42.845Z,24.97
2023-04-08T18:57:11.114Z,25.70
2023-04-08T18:59:39.379Z,28.00
2023-04-08T19:02:07.879Z,28.73
2023-04-08T19:04:38.455Z,28.23
2023-04-08T19:07:06.792Z,29.57
2023-04-08T19:09:35.040Z,25.57
2023-04-08T19:12:03.344Z,24.20
2023-04-08T19:14:31.637Z,28.73
2023-04-08T19:16:59.996Z,24.43
2023-04-08T19:19:28.300Z,25.93
2023-04-08T19:21:58.343Z,25.37
2023-04-08T19:24:26.725Z,23.50
2023-04-08T19:26:55.060Z,24.37
2023-04-08T19:29:24.348Z,27.03
2023-04-08T19:31:52.738Z,21.67
2023-04-08T19:34:21.079Z,22.40
2023-04-08T19:36:49.313Z,22.70
2023-04-08T19:39:19.167Z,22.60
2023-04-08T19:41:47.464Z,22.07
2023-04-08T19:44:15.765Z,23.50
2023-04-08T19:46:43.989Z,22.10
2023-04-08T19:49:12.444Z,23.13
2023-04-08T19:51:40.934Z,23.60
2023-04-08T19:54:09.361Z,24.40
2023-04-08T19:56:39.456Z,23.43
2023-04-08T19:59:07.835Z,23.97
2023-04-08T20:01:36.419Z,24.17
2023-04-08T20:04:04.788Z,23.10
2023-04-08T20:06:33.606Z,24.20
2023-04-08T20:09:05.584Z,23.93
2023-04-08T20:11:34.150Z,25.37
2023-04-08T20:14:04.731Z,23.47
2023-04-08T20:16:33.088Z,25.60
2023-04-08T20:19:01.426Z,24.93
2023-04-08T20:21:29.668Z,24.47
2023-04-08T20:23:57.932Z,25.47
2023-04-08T20:26:26.153Z,23.37
2023-04-08T20:28:57.049Z,24.27
2023-04-08T20:31:28.253Z,26.57
2023-04-08T20:33:56.571Z,25.90
2023-04-08T20:36:25.195Z,24.33
2023-04-08T20:38:54.886Z,24.70
2023-04-08T20:41:23.951Z,25.43
2023-04-08T20:43:52.533Z,24.30
2023-04-08T20:46:20.821Z,23.93
2023-04-08T20:48:50.834Z,25.67
2023-04-08T20:51:19.252Z,24.37
2023-04-08T20:53:48.299Z,20.33
2023-04-08T20:56:16.533Z,21.70
2023-04-08T20:58:44.845Z,22.20
2023-04-08T21:01:13.187Z,20.43
2023-04-08T21:03:41.643Z,20.93
2023-04-08T21:06:16.852Z,21.33
2023-04-08T21:08:45.090Z,22.77
2023-04-08T21:11:13.463Z,22.90
2023-04-08T21:13:41.856Z,23.77
2023-04-08T21:16:10.353Z,21.73
2023-04-08T21:18:40.014Z,22.77
2023-04-08T21:21:08.235Z,20.63
2023-04-08T21:23:37.763Z,21.33
2023-04-08T21:26:11.844Z,24.47
2023-04-08T21:28:40.832Z,23.23
2023-04-08T21:31:09.433Z,21.20
2023-04-08T21:33:37.694Z,19.60
2023-04-08T21:36:06.896Z,20.23
2023-04-08T21:38:35.179Z,22.50
2023-04-08T21:41:04.755Z,22.63
2023-04-08T21:43:33.130Z,23.03
2023-04-08T21:46:01.409Z,22.67
2023-04-08T21:48:29.633Z,24.40
2023-04-08T21:50:57.922Z,22.20
2023-04-08T21:53:26.321Z,23.47
2023-04-08T21:55:54.554Z,23.30
2023-04-08T21:58:24.137Z,24.30
2023-04-08T22:00:53.117Z,24.47
2023-04-08T22:03:21.758Z,23.83
2023-04-08T22:05:50.064Z,26.07
2023-04-08T22:08:18.256Z,23.77
2023-04-08T22:10:46.751Z,25.70
2023-04-08T22:13:17.364Z,29.10
2023-04-08T22:15:47.035Z,27.60
2023-04-08T22:18:15.510Z,26.10
2023-04-08T22:20:43.751Z,25.17
2023-04-08T22:23:11.984Z,27.97
2023-04-08T22:25:40.468Z,26.83
2023-04-08T22:28:08.696Z,26.20
2023-04-08T22:30:36.979Z,26.73
2023-04-08T22:33:06.661Z,26.90
2023-04-08T22:35:34.910Z,28.50
2023-04-08T22:38:03.261Z,26.57
2023-04-08T22:40:31.450Z,23.30
2023-04-08T22:42:59.680Z,25.90
2023-04-08T22:45:27.919Z,26.43
2023-04-08T22:47:56.304Z,24.83
2023-04-08T22:50:26.263Z,23.37
2023-04-08T22:52:54.511Z,27.43
2023-04-08T22:55:22.728Z,26.13
2023-04-08T22:57:51.120Z,26.53
2023-04-08T23:00:19.536Z,27.07
2023-04-08T23:02:47.903Z,24.63
2023-04-08T23:05:16.219Z,27.10
2023-04-08T23:07:45.771Z,26.57
2023-04-08T23:10:13.977Z,26.43
2023-04-08T23:12:42.215Z,26.83
2023-04-08T23:15:10.745Z,26.13
2023-04-08T23:17:38.930Z,24.50
2023-04-08T23:20:07.863Z,24.40
2023-04-08T23:22:36.274Z,24.70
2023-04-08T23:25:06.109Z,29.87
2023-04-08T23:27:34.291Z,25.27
2023-04-08T23:30:05.434Z,25.10
2023-04-08T23:32:33.839Z,25.20
2023-04-08T23:35:02.156Z,25.80
2023-04-08T23:37:31.082Z,23.70
2023-04-08T23:39:59.283Z,23.30
2023-04-08T23:42:29.057Z,25.83
2023-04-08T23:44:57.325Z,23.40
2023-04-08T23:47:25.718Z,25.13
2023-04-08T23:49:54.134Z,25.93
2023-04-08T23:52:22.614Z,26.90
2023-04-08T23:54:51.632Z,25.33
2023-04-08T23:57:20.686Z,25.37
2023-04-08T23:59:50.393Z,23.87
